LFMK/CCF METAR and TAF weather

Enter ICAO airport designator
Station Type Date Time Source
LFMK METAR 2019/04/23 04:30 UTC NOAA

LFMK 230430Z AUTO 09010KT 9999 BKN007/// OVC015/// ///TCU 12/12 Q0998 TEMPO 4000 RA BKN007 OVC013


Station Type Date Time Source
LFMK Decoded METAR 2019/04/23 04:30 UTC NOAA

Carcassonne, France (LFMK) 43-13N 002-19E 130M
Apr 23, 2019 - 12:30 AM EDT / 2019.04.23 0430 UTC
Wind: from the E (090 degrees) at 12 MPH (10 KT):0
Visibility: greater than 7 mile(s):0
Sky conditions: overcast
Weather: Towering cumulus clouds observed
Temperature: 53 F (12 C)
Dew Point: 53 F (12 C)
Relative Humidity: 100%
Pressure (altimeter): 29.47 in. Hg (0998 hPa)
ob: LFMK 230430Z AUTO 09010KT 9999 BKN007/// OVC015/// ///TCU 12/12 Q0998 TEMPO 4000 RA BKN007 OVC013
cycle: 4

Station Type Date Time Source
LFMK TAF 2019/04/23 03:42 UTC NOAA

TAF LFMK 230200Z 2303/2403 10015KT 9999 SCT007 OVC020
TEMPO 2303/2307 4000 RA BKN007 OVC013
TEMPO 2308/2323 10015G25KT
TEMPO 2315/2321 10017G30KT

Example: see airport list